San Antonio, Texas
Traffic Map
Current Weather Conditions
San Antonio, Texas
Clear
Clear
79°
Feels Like: 79°
Wind Chill: 79° Ceiling: Unl
Heat Index: 79° Visibility: 10mi
Dew Point: 53° Wind: 7mph
Humidity: 41% Direction: 270° (W)
Pressure: 30.11in Gusts: 0mph
Raw Report DataKSKF 041658Z AUTO 27006KT 10SM CLR 26/12 A3011 RMK AO2 SLP191 T02590116 $
Traffic Incident Summary
Active as of:
Severity:
Category:
InformationThere was an issue retrieving the traffic information for this location. Please try a different location or try again shortly.
Advertisements
Track Severe Weather on mobile